Weather at H Chambers Cadillac Heliport [CLOSED]

Public forecast

Using degrees Fahrenheit for public forecast. Weather courtesy of forecast.io.

Closest aviation weather report (METAR) to H Chambers Cadillac Heliport

Closest report is Theodore Francis Green State Airport, 4.1 nm (7.5 km) S. Retrieved 2022/01/23 08:51 UTC (47 minutes ago):

KPVD 230851Z AUTO 00000KT 10SM BKN080 M08/M10 A2998 RMK AO2 SLP152 I1000 I3000 T10831100 58020

Closest aviation forecast (TAF) to H Chambers Cadillac Heliport

Closest forecast is Theodore Francis Green State Airport, 4.1 nm (7.5 km) S. Retrieved 2022/01/23 06:42 UTC (3 hours ago):

TAF KPVD 230539Z 2306/2406 24004KT P6SM FEW200 FM231000 25005KT P6SM FEW120 FM231300 26007KT P6SM BKN070 FM232300 26006KT P6SM BKN045 FM240100 27005KT P6SM VCSH OVC035 FM240500 31004KT P6SM BKN050